Time;durP1;ratioP1;P1;durP2;ratioP2;P2;SDS_P1;SDS_P2;PMS_P1;PMS_P2;Temp;Humidity;BMP_temperature;BMP_pressure;BME280_temperature;BME280_humidity;BME280_pressure;Samples;Min_cycle;Max_cycle;Signal;HPM_P1;HPM_P2
2022/07/08 00:00:18;;;;;;;5.90;1.60;;;;;;;19.58;47.02;100400.83;1441549;89;21375;-81
2022/07/08 00:02:45;;;;;;;11.47;1.80;;;;;;;19.63;46.99;100390.83;1439009;90;23323;-81
2022/07/08 00:05:12;;;;;;;3.70;1.80;;;;;;;19.68;46.75;100395.91;1438470;89;22976;-82
2022/07/08 00:07:40;;;;;;;2.43;1.60;;;;;;;19.69;46.57;100395.39;1434248;89;21451;-81
2022/07/08 00:10:10;;;;;;;4.20;1.70;;;;;;;19.73;46.42;100392.06;1429694;90;21429;-81
2022/07/08 00:12:37;;;;;;;5.28;1.75;;;;;;;19.74;46.49;100390.23;1442651;88;21568;-81
2022/07/08 00:15:06;;;;;;;9.90;1.80;;;;;;;19.73;46.34;100388.03;1442185;89;21414;-81
2022/07/08 00:17:33;;;;;;;5.27;1.87;;;;;;;19.74;46.23;100392.39;1500285;89;22001;-81
2022/07/08 00:20:00;;;;;;;5.13;1.43;;;;;;;19.71;46.14;100392.81;1376819;91;21414;-81
2022/07/08 00:22:27;;;;;;;3.47;1.70;;;;;;;19.68;46.21;100386.52;1364397;91;21347;-81
2022/07/08 00:24:54;;;;;;;3.93;0.93;;;;;;;19.65;46.14;100384.25;1367900;90;21280;-81
2022/07/08 00:27:22;;;;;;;10.37;1.87;;;;;;;19.66;46.03;100386.41;1366635;89;22075;-81
2022/07/08 00:29:49;;;;;;;15.10;2.17;;;;;;;19.65;45.81;100384.71;1478846;90;21423;-81
2022/07/08 00:32:16;;;;;;;3.53;1.87;;;;;;;19.64;45.68;100381.20;1360232;91;21319;-81
2022/07/08 00:34:43;;;;;;;4.27;1.63;;;;;;;19.63;45.68;100386.28;1360376;91;22194;-81
2022/07/08 00:37:10;;;;;;;22.33;4.20;;;;;;;19.62;45.63;100385.95;1413612;90;22250;-81
2022/07/08 00:39:38;;;;;;;2.20;1.50;;;;;;;19.63;45.67;100391.64;1430689;88;21364;-81
2022/07/08 00:42:06;;;;;;;3.83;1.80;;;;;;;19.63;45.71;100392.98;1430057;89;21391;-81
2022/07/08 00:44:33;;;;;;;4.47;2.30;;;;;;;19.62;45.69;100400.71;1429696;91;21407;-81
2022/07/08 00:47:01;;;;;;;4.13;1.87;;;;;;;19.61;45.80;100399.08;1428153;90;23186;-82
2022/07/08 00:49:28;;;;;;;5.43;1.80;;;;;;;19.60;45.84;100393.41;1502829;90;21339;-82
2022/07/08 00:51:57;;;;;;;7.20;1.80;;;;;;;19.62;45.92;100400.71;1360236;90;21394;-82
2022/07/08 00:54:25;;;;;;;6.23;1.57;;;;;;;19.59;46.10;100401.12;1442072;91;22207;-82
2022/07/08 00:56:54;;;;;;;4.03;1.90;;;;;;;19.53;46.42;100387.20;1351227;91;21401;-81
2022/07/08 00:59:21;;;;;;;8.63;1.60;;;;;;;19.44;46.75;100387.11;1493829;91;21384;-82
2022/07/08 01:01:49;;;;;;;6.17;1.40;;;;;;;19.36;47.17;100386.30;1383388;91;21339;-82
2022/07/08 01:04:16;;;;;;;3.00;1.47;;;;;;;19.29;47.35;100378.73;1358913;90;21365;-82
2022/07/08 01:06:43;;;;;;;7.27;1.73;;;;;;;19.24;47.63;100377.19;1406544;91;22396;-82
2022/07/08 01:09:10;;;;;;;2.83;1.77;;;;;;;19.19;47.69;100370.29;1436184;89;22439;-82
2022/07/08 01:11:37;;;;;;;2.50;1.57;;;;;;;19.13;47.81;100369.74;1433615;90;21405;-82
2022/07/08 01:14:05;;;;;;;5.87;1.80;;;;;;;19.05;47.99;100383.37;1440824;90;21510;-81
2022/07/08 01:16:32;;;;;;;5.60;1.60;;;;;;;19.01;47.89;100383.45;1434997;89;22573;-82
2022/07/08 01:18:59;;;;;;;7.57;1.80;;;;;;;18.90;48.68;100387.06;1433866;88;22545;-81
2022/07/08 01:21:28;;;;;;;2.83;1.70;;;;;;;18.83;49.05;100385.39;1425245;91;21384;-81
2022/07/08 01:23:55;;;;;;;3.97;2.07;;;;;;;18.75;49.47;100385.56;1431678;91;21332;-82
2022/07/08 01:26:23;;;;;;;5.93;1.80;;;;;;;18.65;50.39;100392.63;1406861;91;22442;-81
2022/07/08 01:28:50;;;;;;;4.50;1.70;;;;;;;18.63;50.10;100394.67;1409835;92;21340;-81
2022/07/08 01:31:17;;;;;;;110.37;5.13;;;;;;;18.68;49.84;100396.25;1409821;92;21442;-81
2022/07/08 01:33:44;;;;;;;130.33;7.00;;;;;;;18.69;49.91;100390.67;1404358;93;21399;-81
2022/07/08 01:36:11;;;;;;;54.50;3.27;;;;;;;18.71;50.03;100385.94;1412597;93;21421;-81
2022/07/08 01:38:38;;;;;;;64.97;3.10;;;;;;;18.72;50.17;100385.42;1439164;89;22374;-82
2022/07/08 01:41:05;;;;;;;15.43;2.17;;;;;;;18.68;50.54;100390.89;1435207;91;21526;-81
2022/07/08 01:43:32;;;;;;;2.53;1.60;;;;;;;18.63;50.17;100390.66;1425316;91;21472;-82
2022/07/08 01:46:00;;;;;;;4.83;2.00;;;;;;;18.64;50.50;100390.95;1436646;91;21391;-81
2022/07/08 01:48:27;;;;;;;2.33;1.70;;;;;;;18.65;50.91;100389.95;1423518;91;21415;-82
2022/07/08 01:50:54;;;;;;;5.30;2.33;;;;;;;18.68;51.53;100385.52;1432109;91;21412;-82
2022/07/08 01:53:21;;;;;;;3.53;1.90;;;;;;;18.69;51.49;100380.47;1431534;91;22464;-82
2022/07/08 01:55:49;;;;;;;102.20;5.70;;;;;;;18.68;51.41;100377.48;1428029;91;21407;-82
2022/07/08 01:58:17;;;;;;;6.53;2.23;;;;;;;18.67;51.33;100369.11;1425936;91;22329;-82
2022/07/08 02:00:44;;;;;;;3.87;1.60;;;;;;;18.62;51.46;100367.05;1433104;91;23660;-82
2022/07/08 02:03:12;;;;;;;3.00;2.13;;;;;;;18.54;51.90;100362.39;1432384;91;21526;-82
2022/07/08 02:05:39;;;;;;;4.47;1.80;;;;;;;18.47;51.97;100368.55;1419513;91;21582;-83
2022/07/08 02:08:06;;;;;;;3.10;1.80;;;;;;;18.45;51.87;100373.80;1429840;91;21531;-83
2022/07/08 02:13:02;;;;;;;5.40;1.60;;;;;;;18.43;51.78;100390.06;1416046;90;21518;-83
2022/07/08 02:15:29;;;;;;;5.93;1.80;;;;;;;18.49;51.41;100397.81;1429223;91;22366;-82
2022/07/08 02:17:56;;;;;;;7.00;1.70;;;;;;;18.54;51.35;100402.59;1430579;91;21565;-82
2022/07/08 02:20:24;;;;;;;4.63;1.83;;;;;;;18.58;51.32;100399.81;1434852;91;21457;-82
2022/07/08 02:22:51;;;;;;;4.13;1.83;;;;;;;18.55;52.19;100405.57;1432560;91;21429;-82
2022/07/08 02:25:19;;;;;;;6.70;2.30;;;;;;;18.56;52.22;100400.51;1432638;91;22396;-82
2022/07/08 02:27:46;;;;;;;2.00;1.53;;;;;;;18.58;51.81;100395.78;1432450;91;21524;-82
2022/07/08 02:30:13;;;;;;;3.80;1.73;;;;;;;18.51;51.72;100401.12;1425056;91;21443;-82
2022/07/08 02:32:40;;;;;;;4.80;2.00;;;;;;;18.47;51.74;100400.71;1441389;91;21434;-82
2022/07/08 02:35:08;;;;;;;6.13;2.27;;;;;;;18.44;52.26;100403.80;1430183;91;21413;-82
2022/07/08 02:37:35;;;;;;;4.40;1.87;;;;;;;18.45;51.85;100408.11;1426549;90;21467;-82
2022/07/08 02:40:03;;;;;;;3.20;1.90;;;;;;;18.42;52.62;100408.52;1432444;91;21305;-81
2022/07/08 02:42:30;;;;;;;4.17;1.90;;;;;;;18.44;52.48;100411.83;1433983;91;21398;-81
2022/07/08 02:44:57;;;;;;;2.33;1.23;;;;;;;18.44;52.44;100409.16;1420491;90;21496;-82
2022/07/08 02:47:24;;;;;;;2.20;1.47;;;;;;;18.44;52.35;100405.63;1431179;90;21429;-82
2022/07/08 02:49:51;;;;;;;3.03;1.53;;;;;;;18.35;52.84;100402.28;1424098;91;21474;-82
2022/07/08 02:52:18;;;;;;;8.37;1.90;;;;;;;18.31;52.82;100409.08;1431790;91;23514;-82
2022/07/08 02:54:45;;;;;;;5.37;1.70;;;;;;;18.29;53.18;100408.44;1433807;91;21474;-83
2022/07/08 02:57:12;;;;;;;3.67;1.90;;;;;;;18.27;52.99;100411.86;1423972;91;21427;-81
2022/07/08 02:59:39;;;;;;;6.57;2.43;;;;;;;18.30;53.10;100419.48;1430586;91;21408;-81
2022/07/08 03:02:06;;;;;;;4.47;2.70;;;;;;;18.29;53.06;100421.84;1429457;90;21420;-81
2022/07/08 03:04:33;;;;;;;7.33;1.93;;;;;;;18.31;53.04;100422.47;1419461;90;21422;-83
2022/07/08 03:07:00;;;;;;;3.90;1.70;;;;;;;18.35;53.12;100429.08;1432678;89;21479;-81
2022/07/08 03:09:27;;;;;;;7.83;2.10;;;;;;;18.36;53.32;100430.75;1440183;90;22701;-81
2022/07/08 03:11:54;;;;;;;6.00;1.70;;;;;;;18.36;53.55;100432.61;1431958;90;21459;-82
2022/07/08 03:14:21;;;;;;;5.67;2.10;;;;;;;18.35;53.82;100437.11;1434443;91;21341;-81
2022/07/08 03:16:48;;;;;;;3.63;1.57;;;;;;;18.39;53.62;100434.38;1431169;90;21924;-81
2022/07/08 03:19:15;;;;;;;4.87;1.33;;;;;;;18.39;53.73;100441.59;1436086;90;21390;-88
2022/07/08 03:21:42;;;;;;;4.93;1.80;;;;;;;18.38;53.42;100439.91;1431581;91;21445;-86
2022/07/08 03:24:10;;;;;;;10.57;1.97;;;;;;;18.39;53.46;100443.75;1455368;88;21384;-85
2022/07/08 03:26:37;;;;;;;4.63;1.70;;;;;;;18.38;53.69;100447.95;1461921;89;21578;-85
2022/07/08 03:29:04;;;;;;;2.90;1.87;;;;;;;18.37;53.71;100455.17;1440695;89;21408;-85
2022/07/08 03:31:31;;;;;;;5.87;2.20;;;;;;;18.38;53.71;100458.15;1426841;90;21482;-85
2022/07/08 03:33:58;;;;;;;5.60;1.50;;;;;;;18.41;54.36;100459.12;1429885;90;21354;-85
2022/07/08 03:36:25;;;;;;;11.93;2.00;;;;;;;18.38;54.18;100463.52;1429827;90;21449;-85
2022/07/08 03:38:53;;;;;;;5.90;2.00;;;;;;;18.36;54.56;100468.26;1434001;89;21452;-84
2022/07/08 03:41:20;;;;;;;6.00;1.63;;;;;;;18.38;54.14;100462.69;1431097;90;21568;-84
2022/07/08 03:43:49;;;;;;;5.60;1.97;;;;;;;18.42;54.15;100466.12;1433535;91;21586;-84
2022/07/08 03:46:17;;;;;;;2.83;2.10;;;;;;;18.48;54.20;100463.98;1433141;91;21592;-84
2022/07/08 03:48:44;;;;;;;3.77;1.80;;;;;;;18.46;54.33;100464.69;1428662;91;21599;-84
2022/07/08 03:51:13;;;;;;;8.20;1.97;;;;;;;18.43;54.10;100466.43;1417134;90;21420;-84
2022/07/08 03:53:42;;;;;;;2.17;1.70;;;;;;;18.39;54.24;100469.72;1427254;90;21466;-85
2022/07/08 03:56:10;;;;;;;7.87;2.53;;;;;;;18.42;54.08;100468.80;1427856;91;23504;-84
2022/07/08 03:58:38;;;;;;;3.30;2.00;;;;;;;18.42;54.33;100474.68;1430295;89;22270;-86
2022/07/08 04:01:06;;;;;;;3.80;2.00;;;;;;;18.42;54.28;100469.33;1425756;90;21525;-85
2022/07/08 04:03:34;;;;;;;2.70;2.03;;;;;;;18.44;54.18;100468.10;1430553;91;21614;-85
2022/07/08 04:06:01;;;;;;;10.07;3.07;;;;;;;18.45;54.32;100467.06;1432515;90;21700;-86
2022/07/08 04:08:28;;;;;;;4.93;2.33;;;;;;;18.49;54.50;100465.62;1437398;91;21671;-85
2022/07/08 04:10:55;;;;;;;2.67;1.70;;;;;;;18.52;54.69;100467.09;1432681;90;21949;-85
2022/07/08 04:13:25;;;;;;;4.90;2.10;;;;;;;18.54;54.57;100470.41;1434911;90;21546;-85
2022/07/08 04:15:52;;;;;;;3.10;1.90;;;;;;;18.62;54.48;100466.74;1433733;91;21599;-84
2022/07/08 04:18:19;;;;;;;10.47;2.60;;;;;;;18.63;54.47;100460.34;1417759;90;22173;-86
2022/07/08 04:20:46;;;;;;;5.60;1.90;;;;;;;18.71;54.64;100477.09;1408657;92;21335;-87
2022/07/08 04:23:14;;;;;;;10.97;2.40;;;;;;;18.80;54.42;100481.80;1433948;91;21430;-87
2022/07/08 04:25:41;;;;;;;8.37;2.07;;;;;;;18.84;54.10;100481.69;1429809;90;21407;-87
2022/07/08 04:28:08;;;;;;;6.83;2.50;;;;;;;18.94;54.24;100486.70;1417156;90;21460;-87
2022/07/08 04:30:35;;;;;;;5.87;1.97;;;;;;;19.00;54.08;100483.73;1428134;90;21400;-87
2022/07/08 04:33:03;;;;;;;5.67;1.90;;;;;;;19.03;53.90;100481.98;1431720;91;21605;-87
2022/07/08 04:35:30;;;;;;;5.70;1.93;;;;;;;19.06;53.77;100486.94;1427130;91;21397;-87
2022/07/08 04:37:59;;;;;;;6.87;1.80;;;;;;;19.06;53.70;100477.55;1423523;91;21402;-87
2022/07/08 04:40:26;;;;;;;3.27;1.80;;;;;;;19.12;53.79;100478.08;1430991;90;21693;-87
2022/07/08 04:42:53;;;;;;;7.90;2.20;;;;;;;19.13;53.35;100470.34;1425097;90;21498;-87
2022/07/08 04:45:21;;;;;;;6.43;2.10;;;;;;;19.20;53.27;100475.22;1434919;90;21443;-87
2022/07/08 04:47:48;;;;;;;19.10;2.13;;;;;;;19.27;53.31;100477.39;1425158;91;21556;-87
2022/07/08 04:50:16;;;;;;;3.37;2.40;;;;;;;19.27;53.02;100473.36;1429836;91;21349;-87
2022/07/08 04:52:44;;;;;;;3.73;1.90;;;;;;;19.35;52.85;100475.04;1429702;91;21456;-86
2022/07/08 04:55:27;;;;;;;8.27;2.40;;;;;;;19.40;52.73;100480.63;1415912;91;21463;-87
2022/07/08 04:57:42;;;;;;;34.07;4.77;;;;;;;19.39;52.38;100479.80;1436124;91;21578;-88
2022/07/08 05:00:11;;;;;;;5.87;2.03;;;;;;;19.46;52.36;100488.37;1434726;91;21420;-87
2022/07/08 05:02:38;;;;;;;5.60;2.00;;;;;;;19.46;51.69;100486.52;1429576;90;21616;-87
2022/07/08 05:05:06;;;;;;;8.63;2.53;;;;;;;19.47;51.75;100491.36;1432979;90;22618;-88
2022/07/08 05:07:33;;;;;;;4.90;2.20;;;;;;;19.51;51.71;100492.62;1427352;90;22465;-87
2022/07/08 05:10:00;;;;;;;3.00;2.10;;;;;;;19.54;51.45;100497.58;1428283;90;21452;-87
2022/07/08 05:12:29;;;;;;;9.67;1.77;;;;;;;19.64;51.71;100491.80;1436988;90;21568;-89
2022/07/08 05:14:56;;;;;;;8.03;2.30;;;;;;;19.73;51.84;100492.75;1425875;91;22476;-89
2022/07/08 05:17:23;;;;;;;21.45;3.02;;;;;;;19.86;51.92;100491.13;1446753;89;21464;-89
2022/07/08 05:19:51;;;;;;;6.33;2.40;;;;;;;19.99;52.01;100492.45;1431075;89;21385;-88
2022/07/08 05:22:18;;;;;;;9.88;2.45;;;;;;;20.12;51.79;100499.16;1422504;91;21445;-87
2022/07/08 05:24:45;;;;;;;11.83;2.12;;;;;;;20.08;51.00;100496.56;1427047;91;21406;-87
2022/07/08 05:27:12;;;;;;;11.90;2.83;;;;;;;20.12;50.85;100493.78;1431424;91;21518;-88
2022/07/08 05:29:39;;;;;;;10.10;2.72;;;;;;;20.19;50.78;100500.48;1431051;91;21360;-89
2022/07/08 05:32:06;;;;;;;16.48;2.50;;;;;;;20.26;50.96;100499.45;1423955;91;21480;-87
2022/07/08 05:34:34;;;;;;;6.10;2.47;;;;;;;20.37;50.94;100503.86;1437168;90;21407;-86
2022/07/08 05:37:01;;;;;;;8.35;2.65;;;;;;;20.42;50.65;100508.09;1431554;91;21437;-87
2022/07/08 05:39:28;;;;;;;7.78;2.33;;;;;;;20.51;50.67;100505.48;1429596;90;22410;-87
2022/07/08 05:41:55;;;;;;;9.03;2.75;;;;;;;20.62;50.08;100509.42;1431074;90;21546;-86
2022/07/08 05:44:22;;;;;;;9.43;3.20;;;;;;;20.73;50.19;100516.31;1437228;91;22337;-87
2022/07/08 05:46:49;;;;;;;14.83;2.75;;;;;;;20.90;50.25;100510.46;1431359;91;22214;-87
2022/07/08 05:49:16;;;;;;;9.13;2.42;;;;;;;20.94;49.75;100514.36;1429536;91;21391;-88
2022/07/08 05:51:43;;;;;;;7.53;2.60;;;;;;;21.06;49.76;100520.75;1429275;91;21339;-88
2022/07/08 05:54:10;;;;;;;8.83;2.45;;;;;;;21.13;49.52;100521.53;1431686;90;21400;-88
2022/07/08 05:56:37;;;;;;;8.08;2.90;;;;;;;21.26;49.37;100522.48;1439345;89;23405;-88
2022/07/08 05:59:04;;;;;;;10.63;3.30;;;;;;;21.33;49.53;100520.60;1425502;90;21450;-88
2022/07/08 06:01:32;;;;;;;7.20;2.60;;;;;;;21.43;49.40;100518.80;1392852;93;22078;-88
2022/07/08 06:03:58;;;;;;;5.78;2.30;;;;;;;21.55;49.21;100520.60;1435762;89;21422;-89
2022/07/08 06:06:26;;;;;;;7.42;2.80;;;;;;;21.62;48.83;100520.02;1430353;90;22293;-87
2022/07/08 06:08:53;;;;;;;9.15;2.58;;;;;;;21.74;49.25;100527.40;1436292;90;21427;-88
2022/07/08 06:11:21;;;;;;;17.45;2.62;;;;;;;21.79;48.08;100526.23;1434995;90;21449;-89
2022/07/08 06:13:53;;;;;;;6.80;2.62;;;;;;;21.86;48.27;100526.98;1438298;90;21346;-88
2022/07/08 06:16:21;;;;;;;6.17;3.12;;;;;;;21.78;47.92;100525.91;1444056;91;22476;-88
2022/07/08 06:18:49;;;;;;;7.10;2.62;;;;;;;21.76;47.83;100534.75;1428700;91;23623;-89
2022/07/08 06:21:19;;;;;;;10.98;2.30;;;;;;;21.86;48.04;100531.03;1436480;90;21467;-88
2022/07/08 06:23:46;;;;;;;8.28;2.40;;;;;;;21.96;48.05;100531.38;1434585;91;21464;-89
2022/07/08 06:26:14;;;;;;;7.53;2.55;;;;;;;21.87;47.93;100540.78;1436763;91;21442;-89
2022/07/08 06:28:41;;;;;;;20.08;3.33;;;;;;;21.96;48.45;100538.64;1437246;91;21428;-89
2022/07/08 06:31:08;;;;;;;13.60;2.67;;;;;;;21.98;48.13;100536.03;1436125;91;22272;-89
2022/07/08 06:33:36;;;;;;;22.93;3.22;;;;;;;22.12;48.29;100538.59;1431028;90;21393;-89
2022/07/08 06:36:04;;;;;;;7.00;2.90;;;;;;;22.25;48.02;100538.52;1431820;91;21339;-89
2022/07/08 06:38:36;;;;;;;11.35;2.60;;;;;;;22.32;47.42;100536.56;1436709;90;21400;-89
2022/07/08 06:41:03;;;;;;;7.53;2.42;;;;;;;22.35;46.48;100533.42;1425824;90;22487;-89
2022/07/08 06:43:30;;;;;;;4.78;2.75;;;;;;;22.35;46.48;100533.42;1434084;91;21384;-90
2022/07/08 06:45:59;;;;;;;18.70;3.47;;;;;;;22.48;46.88;100540.05;1425827;90;22462;-89
2022/07/08 06:48:26;;;;;;;5.75;2.50;;;;;;;22.59;46.79;100537.67;1434555;90;21407;-89
2022/07/08 06:50:53;;;;;;;3.40;2.58;;;;;;;22.69;46.24;100537.95;1436638;91;21423;-89
2022/07/08 06:53:20;;;;;;;13.13;2.75;;;;;;;22.63;45.74;100528.06;1429990;90;21415;-89
2022/07/08 06:55:47;;;;;;;7.37;3.00;;;;;;;22.73;46.63;100542.69;1429605;90;21458;-88
2022/07/08 06:58:14;;;;;;;8.83;2.87;;;;;;;22.87;46.25;100535.27;1431196;90;21849;-88
2022/07/08 07:00:43;;;;;;;8.60;2.35;;;;;;;23.09;45.86;100542.91;1437271;90;21413;-89
2022/07/08 07:03:11;;;;;;;11.88;2.37;;;;;;;23.34;45.70;100540.91;1428767;90;22280;-88
2022/07/08 07:05:39;;;;;;;3.70;2.60;;;;;;;23.45;44.55;100545.22;1433361;90;21502;-90
2022/07/08 07:08:06;;;;;;;7.70;2.55;;;;;;;23.48;44.65;100546.11;1433111;91;21895;-89
2022/07/08 07:10:33;;;;;;;7.83;2.90;;;;;;;23.68;45.46;100537.71;1438352;91;21393;-89
2022/07/08 07:13:00;;;;;;;7.55;2.35;;;;;;;23.81;45.06;100541.06;1415194;91;21473;-89
2022/07/08 07:15:27;;;;;;;6.47;2.65;;;;;;;23.85;44.10;100536.86;1432019;90;22609;-92
2022/07/08 07:17:54;;;;;;;16.57;3.12;;;;;;;23.89;43.43;100537.21;1421804;91;21473;-91
2022/07/08 07:20:21;;;;;;;12.68;3.35;;;;;;;24.00;44.27;100542.34;1431538;91;21376;-88
2022/07/08 07:22:48;;;;;;;7.55;2.60;;;;;;;24.18;44.27;100546.28;1431045;90;21349;-88
2022/07/08 07:25:16;;;;;;;5.90;2.22;;;;;;;24.33;44.12;100549.33;1433553;91;21376;-87
2022/07/08 07:27:43;;;;;;;5.83;2.22;;;;;;;24.14;41.78;100546.98;1428248;91;21429;-87
2022/07/08 07:30:11;;;;;;;7.25;2.62;;;;;;;24.19;42.14;100545.22;1436510;91;22396;-87
2022/07/08 07:32:38;;;;;;;3.98;2.55;;;;;;;24.35;42.89;100545.59;1437977;90;21581;-88
2022/07/08 07:35:06;;;;;;;10.28;3.12;;;;;;;24.53;42.44;100538.72;1436239;90;21349;-87
2022/07/08 07:37:59;;;;;;;7.37;3.08;;;;;;;24.60;41.81;100543.48;1432446;91;22035;-85
2022/07/08 07:40:27;;;;;;;5.40;2.90;;;;;;;24.79;41.76;100543.33;1431857;91;22535;-88
2022/07/08 07:42:56;;;;;;;9.18;2.60;;;;;;;24.99;40.92;100546.45;1428552;91;21452;-92
2022/07/08 07:45:26;;;;;;;15.88;3.25;;;;;;;25.06;41.40;100550.36;1429835;91;21407;-88
2022/07/08 07:47:53;;;;;;;4.12;2.10;;;;;;;25.09;41.37;100550.73;1426876;90;21468;-86
2022/07/08 07:50:20;;;;;;;6.10;3.45;;;;;;;25.33;41.60;100552.02;1432484;90;21518;-86
2022/07/08 07:52:48;;;;;;;13.53;2.22;;;;;;;25.49;41.07;100544.47;1433546;90;21510;-86
2022/07/08 07:55:15;;;;;;;17.75;2.60;;;;;;;25.60;40.44;100550.33;1431824;90;21413;-86
2022/07/08 07:57:46;;;;;;;13.15;2.55;;;;;;;25.76;40.59;100557.39;1437268;90;22420;-86
2022/07/08 08:00:32;;;;;;;5.25;2.20;;;;;;;25.89;40.34;100553.02;1432019;90;21442;-87
2022/07/08 08:03:00;;;;;;;17.98;2.83;;;;;;;25.98;39.23;100562.41;1430707;90;21470;-86
2022/07/08 08:05:27;;;;;;;6.90;2.08;;;;;;;26.07;39.21;100561.47;1437009;90;21657;-87
2022/07/08 08:07:54;;;;;;;6.28;2.60;;;;;;;25.99;38.66;100558.63;1414619;90;21360;-88
2022/07/08 08:10:22;;;;;;;4.78;2.02;;;;;;;26.05;39.44;100552.75;1433305;90;21539;-86
2022/07/08 08:12:49;;;;;;;5.12;2.17;;;;;;;26.31;39.45;100556.67;1419216;90;21443;-86
2022/07/08 08:15:16;;;;;;;4.20;1.92;;;;;;;26.61;38.65;100541.91;1431178;90;21499;-91
2022/07/08 08:17:44;;;;;;;8.78;2.55;;;;;;;26.84;38.42;100544.39;1429454;90;21332;-88
2022/07/08 08:20:12;;;;;;;4.83;1.95;;;;;;;26.84;38.00;100542.21;1435207;90;23702;-88
2022/07/08 08:22:40;;;;;;;16.20;2.25;;;;;;;27.03;37.13;100546.80;1436250;90;21340;-89
2022/07/08 08:25:08;;;;;;;3.35;1.72;;;;;;;27.23;36.85;100555.20;1435512;89;21435;-92
2022/07/08 08:27:42;;;;;;;6.00;1.90;;;;;;;27.22;37.05;100549.50;1405698;89;21655;-90
2022/07/08 08:30:10;;;;;;;5.90;2.08;;;;;;;27.36;37.02;100555.33;1427358;90;21508;-86
2022/07/08 08:32:40;;;;;;;5.60;1.43;;;;;;;27.70;36.06;100546.96;1432803;91;21452;-86
2022/07/08 08:35:09;;;;;;;;;;;;;;;27.57;34.92;100546.86;1433989;91;21353;-87
2022/07/08 08:37:36;;;;;;;10.15;2.58;;;;;;;27.51;35.89;100543.81;1432012;90;20980;-88
2022/07/08 08:40:10;;;;;;;5.92;2.30;;;;;;;27.29;35.66;100541.95;1428059;91;21334;-88
2022/07/08 08:42:40;;;;;;;7.30;2.08;;;;;;;27.38;36.00;100547.20;1431963;91;21434;-90
2022/07/08 08:45:09;;;;;;;10.95;1.80;;;;;;;27.33;35.08;100537.63;1429381;90;21332;-87
2022/07/08 08:47:36;;;;;;;4.77;1.77;;;;;;;27.23;35.45;100549.77;1344127;90;23062;-88
2022/07/08 08:52:56;;;;;;;3.85;1.50;;;;;;;27.41;35.92;100548.05;1410272;90;21446;-87
2022/07/08 08:55:38;;;;;;;6.35;1.98;;;;;;;27.32;35.42;100555.03;1512076;91;22305;-87
2022/07/08 08:58:05;;;;;;;5.62;1.75;;;;;;;27.66;35.89;100546.67;1463071;90;21333;-87
2022/07/08 09:00:35;;;;;;;12.03;2.37;;;;;;;27.85;35.33;100547.96;1512437;90;21305;-86
2022/07/08 09:03:03;;;;;;;4.92;1.82;;;;;;;27.71;35.04;100548.08;1510845;91;21298;-87
2022/07/08 09:05:32;;;;;;;2.12;1.50;;;;;;;27.70;34.59;100542.34;1475208;91;22444;-89
2022/07/08 09:07:59;;;;;;;5.83;1.75;;;;;;;27.72;34.94;100540.19;1434355;91;21437;-88
2022/07/08 09:10:27;;;;;;;6.00;2.00;;;;;;;27.50;35.60;100547.59;1432877;91;22398;-88
2022/07/08 09:13:07;;;;;;;3.20;2.02;;;;;;;27.28;35.58;100544.40;1430639;91;23532;-87
2022/07/08 09:15:50;;;;;;;4.45;1.77;;;;;;;27.16;35.78;100543.70;1433442;90;21556;-88
2022/07/08 09:18:20;;;;;;;4.22;1.75;;;;;;;27.15;35.72;100540.68;1424422;91;21592;-87
2022/07/08 09:20:52;;;;;;;4.50;1.87;;;;;;;27.10;36.51;100544.69;1511463;91;21177;-87
2022/07/08 09:23:29;;;;;;;5.92;1.98;;;;;;;27.18;35.79;100540.20;1511617;91;22275;-84
2022/07/08 09:26:00;;;;;;;6.85;2.05;;;;;;;27.25;35.47;100542.20;1457305;91;22361;-84
2022/07/08 09:28:43;;;;;;;8.70;2.02;;;;;;;27.47;35.24;100543.48;1499925;90;22459;-85
2022/07/08 09:31:15;;;;;;;8.40;2.40;;;;;;;27.48;35.47;100539.71;1431967;90;21584;-85
2022/07/08 09:33:44;;;;;;;4.37;1.82;;;;;;;27.29;34.71;100543.31;1423811;90;21326;-86
2022/07/08 09:36:12;;;;;;;7.35;1.77;;;;;;;27.15;35.24;100533.89;1429582;91;21537;-86
2022/07/08 09:38:40;;;;;;;5.10;1.65;;;;;;;27.28;35.37;100539.51;1419663;90;21384;-85
2022/07/08 09:41:12;;;;;;;10.43;1.98;;;;;;;27.45;35.11;100538.33;1430671;89;21379;-86
2022/07/08 09:43:49;;;;;;;7.65;1.82;;;;;;;27.77;35.08;100534.80;1438086;89;21476;-86
2022/07/08 09:46:17;;;;;;;5.55;1.60;;;;;;;28.01;34.45;100529.84;1479023;90;21362;-85
2022/07/08 09:48:45;;;;;;;6.65;1.75;;;;;;;28.25;34.70;100528.91;1363505;90;21273;-86
2022/07/08 09:51:17;;;;;;;3.83;1.17;;;;;;;28.23;34.66;100531.09;1446818;90;21361;-85
2022/07/08 09:53:45;;;;;;;4.47;2.05;;;;;;;27.96;33.85;100528.98;1443964;90;21377;-86
2022/07/08 09:56:12;;;;;;;5.67;2.27;;;;;;;27.77;34.58;100534.80;1404031;91;21313;-83
2022/07/08 09:58:39;;;;;;;3.08;1.62;;;;;;;27.75;33.46;100527.44;1511943;90;21180;-83
2022/07/08 10:01:13;;;;;;;8.53;1.62;;;;;;;27.87;34.20;100520.48;1507538;90;21311;-85
2022/07/08 10:03:41;;;;;;;15.70;1.95;;;;;;;28.00;34.54;100519.24;1521636;90;21288;-83
2022/07/08 10:06:08;;;;;;;6.62;1.45;;;;;;;28.09;34.49;100523.92;1435097;90;21302;-85
2022/07/08 10:08:37;;;;;;;7.20;2.12;;;;;;;28.13;33.99;100518.77;1415569;90;21310;-85
2022/07/08 10:11:09;;;;;;;1.92;1.40;;;;;;;28.15;32.34;100519.34;1498471;91;21238;-85
2022/07/08 10:13:39;;;;;;;11.88;2.30;;;;;;;28.38;32.83;100520.84;1511037;90;21327;-83
2022/07/08 10:16:10;;;;;;;4.03;1.47;;;;;;;28.50;32.03;100505.69;1483161;89;21290;-84
2022/07/08 10:18:51;;;;;;;17.48;1.47;;;;;;;28.58;33.09;100511.98;1519451;90;21268;-84
2022/07/08 10:21:22;;;;;;;5.72;1.75;;;;;;;28.52;32.06;100515.77;1466377;91;21272;-84
2022/07/08 10:23:53;;;;;;;10.48;1.55;;;;;;;28.61;32.57;100513.37;1512272;90;21221;-85
2022/07/08 10:26:34;;;;;;;8.28;2.27;;;;;;;28.61;32.94;100517.45;1417833;90;21245;-85
2022/07/08 10:29:10;;;;;;;3.05;1.50;;;;;;;28.87;33.16;100514.28;1417637;90;21361;-84
2022/07/08 10:31:47;;;;;;;22.27;1.85;;;;;;;29.11;32.87;100514.10;1512157;90;21222;-84
2022/07/08 10:34:22;;;;;;;9.15;2.00;;;;;;;29.46;32.83;100516.61;1504151;90;22333;-85
2022/07/08 10:36:52;;;;;;;4.10;2.00;;;;;;;29.22;31.99;100514.40;1383143;91;21420;-85
2022/07/08 10:39:31;;;;;;;5.47;2.12;;;;;;;28.92;32.00;100517.03;1510859;91;22163;-84
2022/07/08 10:42:08;;;;;;;5.90;1.80;;;;;;;29.22;32.73;100514.40;1413798;91;21295;-85
2022/07/08 10:44:48;;;;;;;7.92;1.77;;;;;;;29.42;32.18;100517.70;1357131;90;21356;-86
2022/07/08 10:47:28;;;;;;;4.53;1.95;;;;;;;29.51;31.52;100522.08;1358722;91;21437;-84
2022/07/08 10:50:09;;;;;;;5.92;1.60;;;;;;;29.51;31.64;100521.27;1425057;91;21361;-85
2022/07/08 10:52:43;;;;;;;3.70;2.10;;;;;;;29.21;31.85;100515.50;1511811;90;21392;-84
2022/07/08 10:55:14;;;;;;;6.20;1.85;;;;;;;29.32;32.15;100512.77;1494208;89;21305;-85
2022/07/08 10:57:57;;;;;;;6.45;1.95;;;;;;;29.25;31.76;100511.69;1393369;91;21345;-84
2022/07/08 11:00:25;;;;;;;15.63;2.12;;;;;;;29.64;32.02;100513.40;1511487;90;21232;-85
2022/07/08 11:02:53;;;;;;;8.90;1.62;;;;;;;29.76;31.75;100508.22;1455813;91;21415;-85
2022/07/08 11:05:42;;;;;;;6.35;1.50;;;;;;;29.66;30.78;100516.69;1430825;91;23454;-85
2022/07/08 11:08:25;;;;;;;6.60;1.50;;;;;;;29.60;29.84;100517.71;1429158;91;22307;-84
2022/07/08 11:10:55;;;;;;;10.70;1.85;;;;;;;29.53;30.31;100517.18;1430847;91;21671;-85
2022/07/08 11:13:30;;;;;;;4.62;1.72;;;;;;;29.58;30.89;100512.28;1512201;91;22664;-85
2022/07/08 11:16:01;;;;;;;3.42;1.52;;;;;;;29.67;30.69;100527.85;1467814;91;22495;-86
2022/07/08 11:18:36;;;;;;;21.87;2.12;;;;;;;29.85;30.81;100524.30;1431976;91;21379;-85
2022/07/08 11:21:05;;;;;;;5.30;2.02;;;;;;;29.69;30.67;100522.11;1433927;91;21457;-86
2022/07/08 11:23:32;;;;;;;6.15;1.72;;;;;;;29.75;30.65;100524.30;1432110;90;21514;-80
2022/07/08 11:26:01;;;;;;;9.68;1.65;;;;;;;29.17;30.80;100519.02;1431288;91;21542;-80
2022/07/08 11:28:28;;;;;;;4.65;1.47;;;;;;;29.16;31.59;100520.93;1435688;90;21520;-80
2022/07/08 11:30:57;;;;;;;10.20;1.52;;;;;;;29.53;31.28;100525.36;1431895;91;21408;-80
2022/07/08 11:33:40;;;;;;;6.47;1.70;;;;;;;29.72;31.59;100523.48;1432344;91;21324;-79
2022/07/08 11:36:18;;;;;;;9.58;1.25;;;;;;;29.82;30.98;100524.85;1429703;90;21508;-80